Conceicao do Jacuipe, Brazil
Current Conditions -  °F | °C
As of 1:00 AM on Sunday 26 Oct 2014 (Local Time) from SBSV Reporting Station
Scattered Clouds Scattered Clouds  
Wind Chill: 77°   Ceiling: Unl
Heat Index: 79°   Visibility: 6mi
Dew Point: 70°   Wind: 9mph
Humidity: 78%   Direction: 50°NE
Pressure: 29.94"   Gusts: NA
Location:  12.32°S, 38.77°W
Report Text: SBSV 260400Z 05008KT 9999 SCT017 25/21 Q1014
Loading
Personal Weather Stations






























Interactive Weather Map
Tropical Storm Tracking
New forecast layout! Learn more

10-Day Weather Forecast

Advertisements
Track Severe Weather on mobile